createdAt,value
2019-01-02T00:02:14.014Z,3.30
2019-01-02T00:05:01.297Z,3.40
2019-01-02T00:07:50.169Z,3.40
2019-01-02T00:10:38.047Z,3.30
2019-01-02T00:13:18.323Z,3.40
2019-01-02T00:16:05.600Z,3.40
2019-01-02T00:19:08.563Z,3.30
2019-01-02T00:21:56.754Z,3.30
2019-01-02T00:24:58.831Z,3.20
2019-01-02T00:27:46.045Z,3.10
2019-01-02T00:30:26.634Z,3.10
2019-01-02T00:33:14.515Z,3.00
2019-01-02T00:35:55.077Z,3.10
2019-01-02T00:38:42.810Z,3.10
2019-01-02T00:41:45.206Z,3.00
2019-01-02T00:44:32.928Z,3.00
2019-01-02T00:47:13.675Z,3.00
2019-01-02T00:49:54.482Z,2.80
2019-01-02T00:52:35.901Z,2.80
2019-01-02T00:55:23.069Z,2.80
2019-01-02T00:58:03.956Z,2.70
2019-01-02T01:00:45.009Z,2.70
2019-01-02T01:03:25.245Z,2.80
2019-01-02T01:06:12.920Z,2.80
2019-01-02T01:08:51.384Z,2.80
2019-01-02T01:11:39.537Z,2.80
2019-01-02T01:14:28.434Z,2.80
2019-01-02T01:17:15.802Z,2.70
2019-01-02T01:19:56.168Z,2.60
2019-01-02T01:22:43.808Z,2.60
2019-01-02T01:25:24.551Z,2.60
2019-01-02T01:28:12.139Z,2.60
2019-01-02T01:30:52.674Z,2.70
2019-01-02T01:33:40.509Z,2.60
2019-01-02T01:36:42.591Z,2.60
2019-01-02T01:39:23.628Z,2.60
2019-01-02T01:42:03.648Z,2.60
2019-01-02T01:44:43.917Z,2.60
2019-01-02T01:47:31.606Z,2.40
2019-01-02T01:50:20.045Z,2.40
2019-01-02T01:53:07.426Z,2.50
2019-01-02T01:55:35.217Z,2.40
2019-01-02T01:58:02.796Z,2.30
2019-01-02T02:00:30.895Z,2.40
2019-01-02T02:02:58.692Z,2.40
2019-01-02T02:05:26.868Z,2.40
2019-01-02T02:07:54.384Z,2.40
2019-01-02T02:10:22.453Z,2.50
2019-01-02T02:12:50.201Z,2.40
2019-01-02T02:15:17.999Z,2.50
2019-01-02T02:17:46.414Z,2.60
2019-01-02T02:20:14.247Z,2.60
2019-01-02T02:22:41.947Z,2.70
2019-01-02T02:25:13.785Z,2.60
2019-01-02T02:27:41.924Z,2.60
2019-01-02T02:30:11.773Z,2.60
2019-01-02T02:32:40.842Z,2.60
2019-01-02T02:35:09.264Z,2.60
2019-01-02T02:37:37.380Z,2.70
2019-01-02T02:40:06.752Z,2.80
2019-01-02T02:42:34.548Z,2.80
2019-01-02T02:45:03.094Z,2.70
2019-01-02T02:47:31.057Z,2.70
2019-01-02T02:49:59.050Z,2.70
2019-01-02T02:52:26.831Z,2.70
2019-01-02T02:54:55.311Z,2.60
2019-01-02T02:57:23.383Z,2.60
2019-01-02T02:59:51.608Z,2.70
2019-01-02T03:02:19.356Z,2.70
2019-01-02T03:04:47.032Z,2.70
2019-01-02T03:07:15.099Z,2.80
2019-01-02T03:09:43.140Z,2.70
2019-01-02T03:12:11.895Z,2.70
2019-01-02T03:14:39.639Z,2.70
2019-01-02T03:17:07.399Z,2.80
2019-01-02T03:19:36.024Z,2.80
2019-01-02T03:22:04.189Z,2.70
2019-01-02T03:24:32.676Z,2.80
2019-01-02T03:27:01.828Z,2.80
2019-01-02T03:29:29.544Z,2.80
2019-01-02T03:31:57.849Z,2.80
2019-01-02T03:34:26.308Z,2.80
2019-01-02T03:36:53.958Z,2.80
2019-01-02T03:39:22.042Z,2.70
2019-01-02T03:41:50.204Z,2.70
2019-01-02T03:44:18.377Z,2.70
2019-01-02T03:46:46.184Z,2.70
2019-01-02T03:49:14.289Z,2.80
2019-01-02T03:51:41.875Z,2.80
2019-01-02T03:54:09.691Z,2.80
2019-01-02T03:56:37.495Z,2.90
2019-01-02T03:59:05.183Z,2.90
2019-01-02T04:01:32.954Z,3.00
2019-01-02T04:04:00.759Z,3.00
2019-01-02T04:06:28.522Z,3.00
2019-01-02T04:08:56.377Z,3.10
2019-01-02T04:11:24.076Z,3.10
2019-01-02T04:13:52.677Z,3.10
2019-01-02T04:16:21.861Z,3.10
2019-01-02T04:18:49.834Z,3.10
2019-01-02T04:21:17.695Z,3.10
2019-01-02T04:23:45.770Z,3.20
2019-01-02T04:26:13.947Z,3.20
2019-01-02T04:28:41.962Z,3.20
2019-01-02T04:31:09.657Z,3.20
2019-01-02T04:33:37.418Z,3.20
2019-01-02T04:36:05.639Z,3.20
2019-01-02T04:38:33.388Z,3.20
2019-01-02T04:41:01.573Z,3.20
2019-01-02T04:43:30.131Z,3.20
2019-01-02T04:45:57.608Z,3.30
2019-01-02T04:48:25.292Z,3.30
2019-01-02T04:50:52.990Z,3.30
2019-01-02T04:53:20.556Z,3.30
2019-01-02T04:55:48.047Z,3.30
2019-01-02T04:58:16.114Z,3.30
2019-01-02T05:00:43.709Z,3.30
2019-01-02T05:03:11.286Z,3.20
2019-01-02T05:05:39.085Z,3.10
2019-01-02T05:08:07.256Z,3.20
2019-01-02T05:10:34.788Z,3.10
2019-01-02T05:13:02.774Z,3.10
2019-01-02T05:15:30.584Z,3.20
2019-01-02T05:17:58.478Z,3.20
2019-01-02T05:20:26.068Z,3.10
2019-01-02T05:22:53.915Z,3.10
2019-01-02T05:25:21.511Z,3.10
2019-01-02T05:27:49.295Z,3.10
2019-01-02T05:30:18.412Z,3.10
2019-01-02T05:32:46.628Z,3.10
2019-01-02T05:35:14.800Z,3.10
2019-01-02T05:37:42.774Z,3.00
2019-01-02T05:40:19.510Z,3.00
2019-01-02T05:42:47.177Z,2.90
2019-01-02T05:45:14.996Z,2.90
2019-01-02T05:47:42.757Z,2.80
2019-01-02T05:50:10.326Z,2.90
2019-01-02T05:52:38.032Z,2.90
2019-01-02T05:55:05.929Z,2.90
2019-01-02T05:57:33.623Z,2.80
2019-01-02T06:00:01.292Z,2.80
2019-01-02T06:02:28.901Z,2.80
2019-01-02T06:04:56.852Z,2.80
2019-01-02T06:07:24.572Z,2.80
2019-01-02T06:09:52.374Z,2.80
2019-01-02T06:12:20.080Z,2.80
2019-01-02T06:14:48.134Z,2.80
2019-01-02T06:17:15.858Z,2.80
2019-01-02T06:19:43.500Z,2.80
2019-01-02T06:22:11.349Z,2.70
2019-01-02T06:24:38.933Z,2.70
2019-01-02T06:27:07.645Z,2.80
2019-01-02T06:29:35.322Z,2.80
2019-01-02T06:32:03.224Z,2.80
2019-01-02T06:34:30.901Z,2.80
2019-01-02T06:36:58.614Z,2.80
2019-01-02T06:39:26.300Z,2.80
2019-01-02T06:41:54.017Z,2.80
2019-01-02T06:44:21.780Z,2.80
2019-01-02T06:46:49.493Z,2.90
2019-01-02T06:49:17.108Z,2.80
2019-01-02T06:51:45.247Z,2.90
2019-01-02T06:54:12.799Z,2.90
2019-01-02T06:56:40.467Z,2.80
2019-01-02T06:59:08.354Z,2.90
2019-01-02T07:01:36.225Z,2.90
2019-01-02T07:04:03.949Z,2.90
2019-01-02T07:06:31.771Z,2.90
2019-01-02T07:08:59.594Z,3.00
2019-01-02T07:11:27.523Z,3.00
2019-01-02T07:13:55.143Z,3.10
2019-01-02T07:16:23.112Z,3.00
2019-01-02T07:18:50.786Z,3.00
2019-01-02T07:21:18.555Z,2.90
2019-01-02T07:23:46.540Z,2.90
2019-01-02T07:26:15.031Z,3.00
2019-01-02T07:28:42.785Z,2.90
2019-01-02T07:31:10.886Z,3.00
2019-01-02T07:34:07.197Z,2.90
2019-01-02T07:37:23.231Z,2.90
2019-01-02T07:40:49.831Z,2.90
2019-01-02T07:44:11.351Z,2.80
2019-01-02T07:47:38.852Z,2.80
2019-01-02T07:51:24.723Z,2.80
2019-01-02T07:55:12.157Z,2.80
2019-01-02T07:58:38.502Z,2.80
2019-01-02T08:01:38.536Z,2.80
2019-01-02T08:05:04.914Z,2.90
2019-01-02T08:08:04.822Z,2.90
2019-01-02T08:11:31.181Z,2.80
2019-01-02T08:14:34.778Z,2.90
2019-01-02T08:18:01.123Z,2.90
2019-01-02T08:20:50.009Z,2.80
2019-01-02T08:24:16.353Z,2.80
2019-01-02T08:27:16.805Z,2.90
2019-01-02T08:30:43.171Z,2.80
2019-01-02T08:33:43.061Z,2.80
2019-01-02T08:36:43.239Z,2.90
2019-01-02T08:40:09.662Z,2.90
2019-01-02T08:43:00.924Z,2.90
2019-01-02T08:46:27.521Z,2.90
2019-01-02T08:49:13.808Z,3.00
2019-01-02T08:52:13.833Z,3.10
2019-01-02T08:55:36.463Z,3.10
2019-01-02T08:58:36.438Z,3.20
2019-01-02T09:01:46.831Z,3.20
2019-01-02T09:04:33.648Z,3.10
2019-01-02T09:07:34.001Z,3.30
2019-01-02T09:11:00.635Z,3.30
2019-01-02T09:13:49.951Z,3.40
2019-01-02T09:17:16.307Z,3.50
2019-01-02T09:20:16.267Z,3.50
2019-01-02T09:23:27.737Z,3.50
2019-01-02T09:26:12.761Z,3.50
2019-01-02T09:29:26.254Z,3.50
2019-01-02T09:32:32.552Z,3.50
2019-01-02T09:35:58.897Z,3.60
2019-01-02T09:38:47.555Z,3.60
2019-01-02T09:42:14.270Z,3.70
2019-01-02T09:45:14.413Z,3.70
2019-01-02T09:48:30.522Z,3.80
2019-01-02T09:51:30.080Z,3.80
2019-01-02T09:54:44.212Z,3.80
2019-01-02T09:57:43.874Z,3.70
2019-01-02T10:04:22.285Z,3.70
2019-01-02T10:07:28.469Z,3.70
2019-01-02T10:10:57.011Z,3.70
2019-01-02T10:13:50.160Z,3.70
2019-01-02T10:20:53.489Z,3.70
2019-01-02T10:24:00.057Z,3.70
2019-01-02T10:27:00.302Z,3.70
2019-01-02T10:29:53.141Z,3.70
2019-01-02T10:33:19.488Z,3.70
2019-01-02T10:36:19.828Z,3.70
2019-01-02T10:39:19.996Z,3.60
2019-01-02T10:42:46.482Z,3.50
2019-01-02T10:45:32.091Z,3.40
2019-01-02T10:48:58.768Z,3.50
2019-01-02T10:51:58.201Z,3.50
2019-01-02T10:55:24.587Z,3.50
2019-01-02T10:58:24.752Z,3.50
2019-01-02T11:01:51.057Z,3.50
2019-01-02T11:04:54.508Z,3.50
2019-01-02T11:08:21.136Z,3.50
2019-01-02T11:11:17.025Z,3.50
2019-01-02T11:14:43.745Z,3.60
2019-01-02T11:17:44.055Z,3.60
2019-01-02T11:21:10.450Z,3.50
2019-01-02T11:24:10.686Z,3.20
2019-01-02T11:27:37.051Z,2.60
2019-01-02T11:30:37.169Z,2.20
2019-01-02T11:34:03.503Z,2.00
2019-01-02T11:37:04.201Z,1.80
2019-01-02T11:40:30.851Z,1.80
2019-01-02T11:43:30.840Z,1.80
2019-01-02T11:46:18.181Z,2.00
2019-01-02T11:48:58.729Z,2.20
2019-01-02T11:51:46.370Z,2.30
2019-01-02T11:54:27.272Z,2.50
2019-01-02T11:57:15.248Z,2.60
2019-01-02T11:59:55.660Z,2.80
2019-01-02T12:06:10.119Z,5.50
2019-01-02T12:08:51.040Z,7.20
2019-01-02T12:11:31.176Z,7.90
2019-01-02T12:14:18.571Z,7.90
2019-01-02T12:16:59.505Z,6.70
2019-01-02T12:19:46.829Z,5.60
2019-01-02T12:22:27.407Z,4.70
2019-01-02T12:25:07.656Z,4.10
2019-01-02T12:27:55.016Z,3.70
2019-01-02T12:30:35.493Z,3.40
2019-01-02T12:33:22.890Z,3.20
2019-01-02T12:36:03.616Z,3.10
2019-01-02T12:38:50.836Z,3.00
2019-01-02T12:41:31.720Z,3.00
2019-01-02T12:44:19.023Z,2.90
2019-01-02T12:46:59.169Z,2.90
2019-01-02T12:49:39.633Z,2.80
2019-01-02T12:52:19.963Z,2.80
2019-01-02T12:55:07.286Z,2.80
2019-01-02T12:57:47.824Z,2.80
2019-01-02T13:00:30.732Z,2.80
2019-01-02T13:03:57.106Z,2.80
2019-01-02T13:06:56.921Z,2.80
2019-01-02T13:10:06.216Z,2.80
2019-01-02T13:13:06.566Z,2.70
2019-01-02T13:16:32.935Z,2.50
2019-01-02T13:19:39.291Z,2.30
2019-01-02T13:23:05.924Z,2.30
2019-01-02T13:25:48.398Z,2.30
2019-01-02T13:29:01.917Z,2.30
2019-01-02T13:31:53.557Z,2.30
2019-01-02T13:35:19.916Z,2.40
2019-01-02T13:38:19.768Z,2.40
2019-01-02T13:41:46.141Z,2.40
2019-01-02T13:44:49.505Z,2.40
2019-01-02T13:48:18.654Z,2.50
2019-01-02T13:51:18.985Z,2.50
2019-01-02T13:54:06.269Z,2.50
2019-01-02T13:56:47.064Z,2.50
2019-01-02T13:59:34.675Z,2.60
2019-01-02T14:02:15.159Z,2.70
2019-01-02T14:05:03.732Z,2.60
2019-01-02T14:07:46.658Z,2.60
2019-01-02T14:10:34.446Z,2.60
2019-01-02T14:13:14.999Z,2.60
2019-01-02T14:16:02.302Z,2.60
2019-01-02T14:18:45.394Z,2.60
2019-01-02T14:21:33.017Z,2.60
2019-01-02T14:24:13.521Z,2.60
2019-01-02T14:27:00.856Z,2.60
2019-01-02T14:29:41.544Z,2.60
2019-01-02T14:32:09.758Z,2.70
2019-01-02T14:34:37.566Z,2.70
2019-01-02T14:37:05.834Z,2.60
2019-01-02T14:39:33.298Z,2.60
2019-01-02T14:42:01.132Z,2.60
2019-01-02T14:44:28.812Z,2.50
2019-01-02T14:46:56.785Z,2.50
2019-01-02T14:49:24.500Z,2.50
2019-01-02T14:51:52.212Z,2.50
2019-01-02T14:54:19.776Z,2.60
2019-01-02T14:56:47.591Z,2.60
2019-01-02T14:59:15.071Z,2.60
2019-01-02T15:01:42.891Z,2.60
2019-01-02T15:04:10.388Z,2.60
2019-01-02T15:06:38.583Z,2.60
2019-01-02T15:09:07.984Z,2.50
2019-01-02T15:11:36.159Z,2.50
2019-01-02T15:14:03.934Z,2.60
2019-01-02T15:16:31.748Z,2.50
2019-01-02T15:18:59.860Z,2.60
2019-01-02T15:21:27.458Z,2.60
2019-01-02T15:23:55.147Z,2.50
2019-01-02T15:26:22.793Z,2.50
2019-01-02T15:28:50.367Z,2.40
2019-01-02T15:31:18.368Z,2.40
2019-01-02T15:33:46.176Z,2.40
2019-01-02T15:36:13.965Z,2.40
2019-01-02T15:38:41.741Z,2.40
2019-01-02T15:41:09.574Z,2.40
2019-01-02T15:43:37.032Z,2.40
2019-01-02T15:46:04.626Z,2.40
2019-01-02T15:48:32.491Z,2.40
2019-01-02T15:51:00.212Z,2.40
2019-01-02T15:53:27.875Z,2.40
2019-01-02T15:55:55.487Z,2.40
2019-01-02T15:58:23.044Z,2.40
2019-01-02T16:00:51.053Z,2.40
2019-01-02T16:03:18.918Z,2.40
2019-01-02T16:05:46.959Z,2.50
2019-01-02T16:08:15.692Z,2.50
2019-01-02T16:10:43.355Z,2.40
2019-01-02T16:13:11.059Z,2.30
2019-01-02T16:15:39.720Z,2.10
2019-01-02T16:18:07.550Z,1.90
2019-01-02T16:20:35.112Z,1.80
2019-01-02T16:23:03.253Z,1.70
2019-01-02T16:25:31.035Z,1.60
2019-01-02T16:27:58.758Z,1.50
2019-01-02T16:30:26.954Z,1.50
2019-01-02T16:32:54.583Z,1.60
2019-01-02T16:35:22.285Z,1.60
2019-01-02T16:37:50.109Z,1.60
2019-01-02T16:40:17.893Z,1.60
2019-01-02T16:42:45.699Z,1.50
2019-01-02T16:45:13.376Z,1.50
2019-01-02T16:47:41.406Z,1.50
2019-01-02T16:50:09.991Z,1.50
2019-01-02T16:52:37.832Z,1.50
2019-01-02T16:55:05.742Z,1.50
2019-01-02T16:57:33.914Z,1.50
2019-01-02T17:00:01.686Z,1.50
2019-01-02T17:02:29.482Z,1.50
2019-01-02T17:04:56.989Z,1.50
2019-01-02T17:07:24.593Z,1.50
2019-01-02T17:09:52.323Z,1.50
2019-01-02T17:12:20.035Z,1.50
2019-01-02T17:14:47.821Z,1.50
2019-01-02T17:17:15.521Z,1.50
2019-01-02T17:19:43.031Z,1.50
2019-01-02T17:22:10.838Z,1.50
2019-01-02T17:24:38.295Z,1.50
2019-01-02T17:27:05.966Z,1.50
2019-01-02T17:29:33.998Z,1.50
2019-01-02T17:32:01.713Z,1.60
2019-01-02T17:34:29.436Z,1.60
2019-01-02T17:36:57.196Z,1.60
2019-01-02T17:39:25.454Z,1.50
2019-01-02T17:41:53.032Z,1.30
2019-01-02T17:44:20.867Z,1.10
2019-01-02T17:46:48.530Z,1.00
2019-01-02T17:49:16.283Z,0.90
2019-01-02T17:51:44.481Z,0.90
2019-01-02T17:54:12.183Z,1.00
2019-01-02T17:56:40.218Z,1.00
2019-01-02T17:59:08.180Z,1.10
2019-01-02T18:01:35.831Z,1.10
2019-01-02T18:04:04.131Z,1.10
2019-01-02T18:06:31.941Z,1.20
2019-01-02T18:08:59.651Z,1.20
2019-01-02T18:11:27.371Z,1.20
2019-01-02T18:13:55.485Z,1.20
2019-01-02T18:16:23.251Z,1.20
2019-01-02T18:18:51.134Z,1.20
2019-01-02T18:21:18.737Z,1.20
2019-01-02T18:23:46.350Z,1.20
2019-01-02T18:26:13.915Z,1.20
2019-01-02T18:28:41.634Z,1.20
2019-01-02T18:31:10.478Z,1.20
2019-01-02T18:33:38.082Z,1.20
2019-01-02T18:36:05.542Z,1.20
2019-01-02T18:38:33.831Z,1.20
2019-01-02T18:41:01.482Z,1.20
2019-01-02T18:43:30.173Z,1.20
2019-01-02T18:45:57.945Z,1.20
2019-01-02T18:48:25.542Z,1.20
2019-01-02T18:50:53.041Z,1.20
2019-01-02T18:53:22.160Z,1.20
2019-01-02T18:55:49.929Z,1.20
2019-01-02T18:58:17.617Z,1.20
2019-01-02T19:00:45.319Z,1.30
2019-01-02T19:03:12.884Z,1.30
2019-01-02T19:05:40.586Z,1.30
2019-01-02T19:08:08.050Z,1.30
2019-01-02T19:10:36.512Z,1.30
2019-01-02T19:13:04.731Z,1.30
2019-01-02T19:15:32.607Z,1.30
2019-01-02T19:18:00.209Z,1.30
2019-01-02T19:20:28.075Z,1.20
2019-01-02T19:22:56.050Z,1.20
2019-01-02T19:25:23.852Z,1.20
2019-01-02T19:27:53.827Z,1.20
2019-01-02T19:30:21.922Z,1.20
2019-01-02T19:32:49.859Z,1.30
2019-01-02T19:35:17.995Z,1.20
2019-01-02T19:37:46.103Z,1.30
2019-01-02T19:40:14.694Z,1.20
2019-01-02T19:42:44.816Z,1.20
2019-01-02T19:45:13.079Z,1.20
2019-01-02T19:47:42.878Z,1.20
2019-01-02T19:50:10.871Z,1.30
2019-01-02T19:52:38.690Z,1.20
2019-01-02T19:55:10.074Z,1.20
2019-01-02T19:57:38.212Z,1.20
2019-01-02T20:00:09.821Z,1.20
2019-01-02T20:02:37.973Z,1.20
2019-01-02T20:05:06.039Z,1.20
2019-01-02T20:07:34.222Z,1.20
2019-01-02T20:10:02.116Z,1.20
2019-01-02T20:12:30.869Z,1.20
2019-01-02T20:15:00.649Z,1.10
2019-01-02T20:17:28.608Z,1.10
2019-01-02T20:19:58.290Z,1.10
2019-01-02T20:22:25.879Z,1.10
2019-01-02T20:24:56.508Z,1.10
2019-01-02T20:27:24.006Z,1.10
2019-01-02T20:29:52.068Z,1.10
2019-01-02T20:32:35.255Z,1.00
2019-01-02T20:35:23.009Z,1.10
2019-01-02T20:38:05.032Z,1.00
2019-01-02T20:40:52.334Z,1.00
2019-01-02T20:43:33.248Z,1.00
2019-01-02T20:46:20.644Z,1.00
2019-01-02T20:49:01.434Z,1.00
2019-01-02T20:51:49.255Z,0.90
2019-01-02T20:54:32.910Z,0.90
2019-01-02T20:57:22.899Z,0.80
2019-01-02T21:00:03.485Z,0.80
2019-01-02T21:03:14.882Z,0.80
2019-01-02T21:05:54.877Z,0.80
2019-01-02T21:08:42.476Z,0.80
2019-01-02T21:11:23.379Z,0.80
2019-01-02T21:14:11.068Z,0.80
2019-01-02T21:16:51.763Z,0.80
2019-01-02T21:19:38.984Z,0.80
2019-01-02T21:22:19.379Z,0.70
2019-01-02T21:24:59.255Z,0.70
2019-01-02T21:27:46.434Z,0.70
2019-01-02T21:30:26.690Z,0.80
2019-01-02T21:33:14.156Z,0.80
2019-01-02T21:35:54.743Z,0.80
2019-01-02T21:38:42.143Z,0.80
2019-01-02T21:41:22.443Z,0.90
2019-01-02T21:44:03.469Z,0.90
2019-01-02T21:46:51.628Z,0.90
2019-01-02T21:49:31.621Z,0.80
2019-01-02T21:55:47.013Z,0.80
2019-01-02T21:58:27.237Z,0.80
2019-01-02T22:01:08.732Z,0.80
2019-01-02T22:03:56.051Z,0.80
2019-01-02T22:06:36.585Z,0.80
2019-01-02T22:09:16.905Z,0.80
2019-01-02T22:12:04.383Z,0.90
2019-01-02T22:14:45.007Z,0.90
2019-01-02T22:17:32.292Z,0.90
2019-01-02T22:20:13.181Z,0.90
2019-01-02T22:23:00.410Z,0.90
2019-01-02T22:25:42.965Z,0.90
2019-01-02T22:28:23.537Z,0.90
2019-01-02T22:31:03.518Z,0.90
2019-01-02T22:33:51.204Z,0.90
2019-01-02T22:36:32.080Z,0.90
2019-01-02T22:39:19.796Z,0.90
2019-01-02T22:42:01.624Z,0.90
2019-01-02T22:44:43.507Z,0.90
2019-01-02T22:47:30.891Z,0.90
2019-01-02T22:50:10.965Z,0.90
2019-01-02T22:52:58.345Z,0.90
2019-01-02T22:55:38.839Z,0.90
2019-01-02T22:58:26.241Z,0.90
2019-01-02T23:01:08.935Z,0.90
2019-01-02T23:04:16.335Z,0.90
2019-01-02T23:07:18.194Z,0.90
2019-01-02T23:13:26.729Z,0.90
2019-01-02T23:16:29.680Z,1.00
2019-01-02T23:19:29.778Z,1.00
2019-01-02T23:22:29.500Z,1.00
2019-01-02T23:25:36.441Z,1.00
2019-01-02T23:28:39.073Z,0.90
2019-01-02T23:31:37.555Z,1.00
2019-01-02T23:34:44.260Z,1.00
2019-01-02T23:37:38.056Z,1.00
2019-01-02T23:40:45.284Z,1.10
2019-01-02T23:43:45.422Z,1.10
2019-01-02T23:46:45.659Z,1.00
2019-01-02T23:53:12.082Z,1.00
2019-01-02T23:56:12.533Z,1.00
